sensor_id;sensor_type;location;lat;lon;timestamp;pressure;altitude;pressure_sealevel;temperature;humidity
50790;BME280;37287;47.554;7.844;2023-11-21T00:00:37;97437.59;;;8.03;100.00
50790;BME280;37287;47.554;7.844;2023-11-21T00:03:04;97436.78;;;8.03;100.00
50790;BME280;37287;47.554;7.844;2023-11-21T00:05:31;97439.84;;;8.01;100.00
50790;BME280;37287;47.554;7.844;2023-11-21T00:07:59;97435.63;;;8.00;100.00
50790;BME280;37287;47.554;7.844;2023-11-21T00:10:27;97441.03;;;8.00;100.00
50790;BME280;37287;47.554;7.844;2023-11-21T00:12:54;97440.59;;;7.98;100.00
50790;BME280;37287;47.554;7.844;2023-11-21T00:15:21;97432.50;;;7.95;100.00
50790;BME280;37287;47.554;7.844;2023-11-21T00:17:50;97437.88;;;7.95;100.00
50790;BME280;37287;47.554;7.844;2023-11-21T00:20:17;97439.41;;;7.96;100.00
50790;BME280;37287;47.554;7.844;2023-11-21T00:22:46;97432.84;;;7.93;100.00
50790;BME280;37287;47.554;7.844;2023-11-21T00:25:14;97430.13;;;7.89;100.00
50790;BME280;37287;47.554;7.844;2023-11-21T00:27:42;97425.50;;;7.90;100.00
50790;BME280;37287;47.554;7.844;2023-11-21T00:30:15;97428.56;;;7.88;100.00
50790;BME280;37287;47.554;7.844;2023-11-21T00:32:41;97421.59;;;7.87;100.00
50790;BME280;37287;47.554;7.844;2023-11-21T00:35:08;97420.44;;;7.85;100.00
50790;BME280;37287;47.554;7.844;2023-11-21T00:37:37;97410.75;;;7.80;100.00
50790;BME280;37287;47.554;7.844;2023-11-21T00:40:07;97414.53;;;7.72;100.00
50790;BME280;37287;47.554;7.844;2023-11-21T00:42:36;97409.16;;;7.72;100.00
50790;BME280;37287;47.554;7.844;2023-11-21T00:45:06;97402.22;;;7.74;100.00
50790;BME280;37287;47.554;7.844;2023-11-21T00:47:32;97402.56;;;7.69;100.00
50790;BME280;37287;47.554;7.844;2023-11-21T00:49:59;97405.56;;;7.64;100.00
50790;BME280;37287;47.554;7.844;2023-11-21T00:52:30;97403.94;;;7.56;100.00
50790;BME280;37287;47.554;7.844;2023-11-21T00:54:57;97406.22;;;7.54;100.00
50790;BME280;37287;47.554;7.844;2023-11-21T00:57:26;97396.13;;;7.47;100.00
50790;BME280;37287;47.554;7.844;2023-11-21T00:59:55;97404.16;;;7.44;100.00
50790;BME280;37287;47.554;7.844;2023-11-21T01:02:22;97399.88;;;7.39;100.00
50790;BME280;37287;47.554;7.844;2023-11-21T01:04:48;97401.75;;;7.35;100.00
50790;BME280;37287;47.554;7.844;2023-11-21T01:07:15;97402.09;;;7.30;100.00
50790;BME280;37287;47.554;7.844;2023-11-21T01:09:42;97407.84;;;7.28;100.00
50790;BME280;37287;47.554;7.844;2023-11-21T01:12:10;97416.63;;;7.25;100.00
50790;BME280;37287;47.554;7.844;2023-11-21T01:14:39;97417.78;;;7.24;100.00
50790;BME280;37287;47.554;7.844;2023-11-21T01:17:06;97408.44;;;7.18;100.00
50790;BME280;37287;47.554;7.844;2023-11-21T01:19:33;97417.25;;;7.15;100.00
50790;BME280;37287;47.554;7.844;2023-11-21T01:22:02;97418.38;;;7.10;100.00
50790;BME280;37287;47.554;7.844;2023-11-21T01:24:30;97416.03;;;7.09;100.00
50790;BME280;37287;47.554;7.844;2023-11-21T01:26:56;97420.97;;;7.03;100.00
50790;BME280;37287;47.554;7.844;2023-11-21T01:29:25;97417.81;;;6.97;100.00
50790;BME280;37287;47.554;7.844;2023-11-21T01:31:51;97423.13;;;6.94;100.00
50790;BME280;37287;47.554;7.844;2023-11-21T01:34:18;97415.00;;;6.90;100.00
50790;BME280;37287;47.554;7.844;2023-11-21T01:36:51;97421.09;;;6.87;100.00
50790;BME280;37287;47.554;7.844;2023-11-21T01:39:18;97418.00;;;6.85;100.00
50790;BME280;37287;47.554;7.844;2023-11-21T01:41:50;97413.75;;;6.84;100.00
50790;BME280;37287;47.554;7.844;2023-11-21T01:44:18;97416.03;;;6.82;100.00
50790;BME280;37287;47.554;7.844;2023-11-21T01:46:47;97412.91;;;6.80;100.00
50790;BME280;37287;47.554;7.844;2023-11-21T01:49:16;97409.81;;;6.78;100.00
50790;BME280;37287;47.554;7.844;2023-11-21T01:51:50;97408.69;;;6.79;100.00
50790;BME280;37287;47.554;7.844;2023-11-21T01:54:20;97409.81;;;6.78;100.00
50790;BME280;37287;47.554;7.844;2023-11-21T01:56:48;97410.94;;;6.77;100.00
50790;BME280;37287;47.554;7.844;2023-11-21T01:59:21;97405.16;;;6.75;100.00
50790;BME280;37287;47.554;7.844;2023-11-21T02:01:48;97405.53;;;6.73;100.00
50790;BME280;37287;47.554;7.844;2023-11-21T02:04:18;97395.53;;;6.74;100.00
50790;BME280;37287;47.554;7.844;2023-11-21T02:06:45;97402.47;;;6.75;100.00
50790;BME280;37287;47.554;7.844;2023-11-21T02:09:11;97406.69;;;6.76;100.00
50790;BME280;37287;47.554;7.844;2023-11-21T02:11:41;97400.91;;;6.74;100.00
50790;BME280;37287;47.554;7.844;2023-11-21T02:14:10;97402.47;;;6.75;100.00
50790;BME280;37287;47.554;7.844;2023-11-21T02:16:40;97399.41;;;6.76;100.00
50790;BME280;37287;47.554;7.844;2023-11-21T02:19:10;97400.63;;;6.79;100.00
50790;BME280;37287;47.554;7.844;2023-11-21T02:21:42;97399.47;;;6.80;100.00
50790;BME280;37287;47.554;7.844;2023-11-21T02:24:12;97397.13;;;6.78;100.00
50790;BME280;37287;47.554;7.844;2023-11-21T02:26:39;97395.94;;;6.76;100.00
50790;BME280;37287;47.554;7.844;2023-11-21T02:29:09;97390.56;;;6.76;100.00
50790;BME280;37287;47.554;7.844;2023-11-21T02:31:38;97393.97;;;6.72;100.00
50790;BME280;37287;47.554;7.844;2023-11-21T02:34:16;97386.34;;;6.75;100.00
50790;BME280;37287;47.554;7.844;2023-11-21T02:36:44;97383.22;;;6.72;100.00
50790;BME280;37287;47.554;7.844;2023-11-21T02:39:11;97386.69;;;6.73;100.00
50790;BME280;37287;47.554;7.844;2023-11-21T02:41:38;97380.53;;;6.72;100.00
50790;BME280;37287;47.554;7.844;2023-11-21T02:44:06;97379.78;;;6.76;100.00
50790;BME280;37287;47.554;7.844;2023-11-21T02:46:33;97383.69;;;6.78;100.00
50790;BME280;37287;47.554;7.844;2023-11-21T02:49:03;97379.50;;;6.81;100.00
50790;BME280;37287;47.554;7.844;2023-11-21T02:51:30;97380.25;;;6.81;100.00
50790;BME280;37287;47.554;7.844;2023-11-21T02:53:56;97383.75;;;6.82;100.00
50790;BME280;37287;47.554;7.844;2023-11-21T02:56:29;97377.16;;;6.79;100.00
50790;BME280;37287;47.554;7.844;2023-11-21T02:58:59;97379.84;;;6.79;100.00
50790;BME280;37287;47.554;7.844;2023-11-21T03:01:26;97377.53;;;6.78;100.00
50790;BME280;37287;47.554;7.844;2023-11-21T03:03:54;97373.28;;;6.77;100.00
50790;BME280;37287;47.554;7.844;2023-11-21T03:06:22;97375.97;;;6.77;100.00
50790;BME280;37287;47.554;7.844;2023-11-21T03:08:51;97382.09;;;6.74;100.00
50790;BME280;37287;47.554;7.844;2023-11-21T03:11:27;97383.94;;;6.69;100.00
50790;BME280;37287;47.554;7.844;2023-11-21T03:13:53;97387.00;;;6.68;100.00
50790;BME280;37287;47.554;7.844;2023-11-21T03:16:20;97373.47;;;6.64;100.00
50790;BME280;37287;47.554;7.844;2023-11-21T03:18:49;97372.31;;;6.62;100.00
50790;BME280;37287;47.554;7.844;2023-11-21T03:21:15;97381.16;;;6.62;100.00
50790;BME280;37287;47.554;7.844;2023-11-21T03:23:42;97384.56;;;6.59;100.00
50790;BME280;37287;47.554;7.844;2023-11-21T03:26:12;97387.63;;;6.58;100.00
50790;BME280;37287;47.554;7.844;2023-11-21T03:28:39;97377.22;;;6.56;100.00
50790;BME280;37287;47.554;7.844;2023-11-21T03:31:06;97385.28;;;6.56;100.00
50790;BME280;37287;47.554;7.844;2023-11-21T03:33:35;97379.13;;;6.56;100.00
50790;BME280;37287;47.554;7.844;2023-11-21T03:36:02;97379.47;;;6.54;100.00
50790;BME280;37287;47.554;7.844;2023-11-21T03:38:30;97375.66;;;6.55;100.00
50790;BME280;37287;47.554;7.844;2023-11-21T03:40:56;97388.31;;;6.54;100.00
50790;BME280;37287;47.554;7.844;2023-11-21T03:43:23;97379.84;;;6.52;100.00
50790;BME280;37287;47.554;7.844;2023-11-21T03:45:51;97387.50;;;6.50;100.00
50790;BME280;37287;47.554;7.844;2023-11-21T03:48:18;97382.47;;;6.49;100.00
50790;BME280;37287;47.554;7.844;2023-11-21T03:50:44;97390.19;;;6.50;100.00
50790;BME280;37287;47.554;7.844;2023-11-21T03:53:13;97388.63;;;6.49;100.00
50790;BME280;37287;47.554;7.844;2023-11-21T03:55:45;97382.06;;;6.47;100.00
50790;BME280;37287;47.554;7.844;2023-11-21T03:58:12;97387.06;;;6.48;100.00
50790;BME280;37287;47.554;7.844;2023-11-21T04:00:39;97383.63;;;6.48;100.00
50790;BME280;37287;47.554;7.844;2023-11-21T04:03:07;97390.13;;;6.47;100.00
50790;BME280;37287;47.554;7.844;2023-11-21T04:05:34;97393.94;;;6.46;100.00
50790;BME280;37287;47.554;7.844;2023-11-21T04:08:00;97391.25;;;6.46;100.00
50790;BME280;37287;47.554;7.844;2023-11-21T04:10:29;97395.13;;;6.48;100.00
50790;BME280;37287;47.554;7.844;2023-11-21T04:12:56;97400.59;;;6.52;100.00
50790;BME280;37287;47.554;7.844;2023-11-21T04:15:23;97397.91;;;6.52;100.00
50790;BME280;37287;47.554;7.844;2023-11-21T04:17:54;97395.22;;;6.52;100.00
50790;BME280;37287;47.554;7.844;2023-11-21T04:20:20;97402.56;;;6.55;100.00
50790;BME280;37287;47.554;7.844;2023-11-21T04:22:49;97394.84;;;6.53;100.00
50790;BME280;37287;47.554;7.844;2023-11-21T04:25:17;97396.75;;;6.53;100.00
50790;BME280;37287;47.554;7.844;2023-11-21T04:27:44;97390.97;;;6.51;100.00
50790;BME280;37287;47.554;7.844;2023-11-21T04:30:13;97390.25;;;6.54;100.00
50790;BME280;37287;47.554;7.844;2023-11-21T04:32:40;97389.88;;;6.56;100.00
50790;BME280;37287;47.554;7.844;2023-11-21T04:35:08;97390.66;;;6.56;100.00
50790;BME280;37287;47.554;7.844;2023-11-21T04:37:35;97399.44;;;6.53;100.00
50790;BME280;37287;47.554;7.844;2023-11-21T04:40:04;97401.75;;;6.54;100.00
50790;BME280;37287;47.554;7.844;2023-11-21T04:42:36;97402.56;;;6.55;100.00
50790;BME280;37287;47.554;7.844;2023-11-21T04:45:05;97404.13;;;6.56;100.00
50790;BME280;37287;47.554;7.844;2023-11-21T04:47:37;97406.47;;;6.61;100.00
50790;BME280;37287;47.554;7.844;2023-11-21T04:50:04;97406.91;;;6.63;100.00
50790;BME280;37287;47.554;7.844;2023-11-21T04:52:32;97412.34;;;6.67;100.00
50790;BME280;37287;47.554;7.844;2023-11-21T04:55:12;97406.22;;;6.70;100.00
50790;BME280;37287;47.554;7.844;2023-11-21T04:57:39;97408.56;;;6.71;100.00
50790;BME280;37287;47.554;7.844;2023-11-21T05:00:09;97409.34;;;6.72;100.00
50790;BME280;37287;47.554;7.844;2023-11-21T05:02:40;97407.84;;;6.75;100.00
50790;BME280;37287;47.554;7.844;2023-11-21T05:05:08;97408.63;;;6.75;100.00
50790;BME280;37287;47.554;7.844;2023-11-21T05:07:37;97410.94;;;6.77;100.00
50790;BME280;37287;47.554;7.844;2023-11-21T05:10:07;97414.06;;;6.79;100.00
50790;BME280;37287;47.554;7.844;2023-11-21T05:12:39;97410.22;;;6.80;100.00
50790;BME280;37287;47.554;7.844;2023-11-21T05:15:14;97410.66;;;6.82;100.00
50790;BME280;37287;47.554;7.844;2023-11-21T05:17:41;97409.84;;;6.81;100.00
50790;BME280;37287;47.554;7.844;2023-11-21T05:20:14;97408.72;;;6.82;100.00
50790;BME280;37287;47.554;7.844;2023-11-21T05:22:47;97418.72;;;6.82;100.00
50790;BME280;37287;47.554;7.844;2023-11-21T05:25:16;97416.81;;;6.82;100.00
50790;BME280;37287;47.554;7.844;2023-11-21T05:27:46;97425.66;;;6.83;100.00
50790;BME280;37287;47.554;7.844;2023-11-21T05:30:19;97423.75;;;6.83;100.00
50790;BME280;37287;47.554;7.844;2023-11-21T05:32:49;97414.09;;;6.82;100.00
50790;BME280;37287;47.554;7.844;2023-11-21T05:35:16;97420.28;;;6.83;100.00
50790;BME280;37287;47.554;7.844;2023-11-21T05:37:45;97417.94;;;6.81;100.00
50790;BME280;37287;47.554;7.844;2023-11-21T05:40:13;97414.84;;;6.79;100.00
50790;BME280;37287;47.554;7.844;2023-11-21T05:42:40;97413.63;;;6.77;100.00
50790;BME280;37287;47.554;7.844;2023-11-21T05:45:09;97414.78;;;6.76;100.00
50790;BME280;37287;47.554;7.844;2023-11-21T05:47:45;97407.03;;;6.70;100.00
50790;BME280;37287;47.554;7.844;2023-11-21T05:50:16;97417.00;;;6.70;100.00
50790;BME280;37287;47.554;7.844;2023-11-21T05:52:44;97420.03;;;6.68;100.00
50790;BME280;37287;47.554;7.844;2023-11-21T05:55:14;97413.81;;;6.64;100.00
50790;BME280;37287;47.554;7.844;2023-11-21T05:57:42;97422.25;;;6.63;100.00
50790;BME280;37287;47.554;7.844;2023-11-21T06:00:12;97433.81;;;6.63;100.00
50790;BME280;37287;47.554;7.844;2023-11-21T06:02:52;97427.63;;;6.63;100.00
50790;BME280;37287;47.554;7.844;2023-11-21T06:05:24;97431.13;;;6.63;100.00
50790;BME280;37287;47.554;7.844;2023-11-21T06:07:55;97434.56;;;6.64;100.00
50790;BME280;37287;47.554;7.844;2023-11-21T06:10:28;97432.25;;;6.62;100.00
50790;BME280;37287;47.554;7.844;2023-11-21T06:12:55;97439.97;;;6.64;100.00
50790;BME280;37287;47.554;7.844;2023-11-21T06:15:30;97435.34;;;6.64;100.00
50790;BME280;37287;47.554;7.844;2023-11-21T06:17:57;97435.78;;;6.66;100.00
50790;BME280;37287;47.554;7.844;2023-11-21T06:20:25;97440.78;;;6.68;100.00
50790;BME280;37287;47.554;7.844;2023-11-21T06:22:52;97445.06;;;6.69;100.00
50790;BME280;37287;47.554;7.844;2023-11-21T06:25:19;97445.06;;;6.69;100.00
50790;BME280;37287;47.554;7.844;2023-11-21T06:27:48;97449.63;;;6.68;100.00
50790;BME280;37287;47.554;7.844;2023-11-21T06:30:19;97452.69;;;6.67;100.00
50790;BME280;37287;47.554;7.844;2023-11-21T06:32:46;97451.56;;;6.68;100.00
50790;BME280;37287;47.554;7.844;2023-11-21T06:35:14;97446.84;;;6.61;100.00
50790;BME280;37287;47.554;7.844;2023-11-21T06:37:44;97452.94;;;6.58;100.00
50790;BME280;37287;47.554;7.844;2023-11-21T06:40:18;97452.88;;;6.54;100.00
50790;BME280;37287;47.554;7.844;2023-11-21T06:42:48;97460.94;;;6.54;100.00
50790;BME280;37287;47.554;7.844;2023-11-21T06:45:15;97462.84;;;6.54;100.00
50790;BME280;37287;47.554;7.844;2023-11-21T06:47:43;97470.50;;;6.52;100.00
50790;BME280;37287;47.554;7.844;2023-11-21T06:50:11;97477.78;;;6.51;100.00
50790;BME280;37287;47.554;7.844;2023-11-21T06:52:40;97475.09;;;6.51;100.00
50790;BME280;37287;47.554;7.844;2023-11-21T06:55:10;97480.47;;;6.51;100.00
50790;BME280;37287;47.554;7.844;2023-11-21T06:57:37;97477.44;;;6.53;100.00
50790;BME280;37287;47.554;7.844;2023-11-21T07:00:05;97480.56;;;6.55;100.00
50790;BME280;37287;47.554;7.844;2023-11-21T07:02:36;97475.22;;;6.59;100.00
50790;BME280;37287;47.554;7.844;2023-11-21T07:05:05;97480.97;;;6.57;100.00
50790;BME280;37287;47.554;7.844;2023-11-21T07:07:32;97489.81;;;6.58;100.00
50790;BME280;37287;47.554;7.844;2023-11-21T07:10:02;97494.41;;;6.57;100.00
50790;BME280;37287;47.554;7.844;2023-11-21T07:12:30;97491.34;;;6.59;100.00
50790;BME280;37287;47.554;7.844;2023-11-21T07:14:59;97490.66;;;6.62;100.00
50790;BME280;37287;47.554;7.844;2023-11-21T07:17:29;97487.63;;;6.63;100.00
50790;BME280;37287;47.554;7.844;2023-11-21T07:19:57;97492.28;;;6.66;100.00
50790;BME280;37287;47.554;7.844;2023-11-21T07:22:24;97495.31;;;6.65;100.00
50790;BME280;37287;47.554;7.844;2023-11-21T07:24:51;97492.19;;;6.63;100.00
50790;BME280;37287;47.554;7.844;2023-11-21T07:27:18;97494.97;;;6.66;100.00
50790;BME280;37287;47.554;7.844;2023-11-21T07:29:45;97496.53;;;6.67;100.00
50790;BME280;37287;47.554;7.844;2023-11-21T07:32:11;97501.53;;;6.69;100.00
50790;BME280;37287;47.554;7.844;2023-11-21T07:34:41;97499.69;;;6.73;100.00
50790;BME280;37287;47.554;7.844;2023-11-21T07:37:08;97505.47;;;6.75;100.00
50790;BME280;37287;47.554;7.844;2023-11-21T07:39:39;97495.91;;;6.78;100.00
50790;BME280;37287;47.554;7.844;2023-11-21T07:42:10;97502.50;;;6.80;100.00
50790;BME280;37287;47.554;7.844;2023-11-21T07:44:37;97496.75;;;6.82;100.00
50790;BME280;37287;47.554;7.844;2023-11-21T07:47:04;97494.84;;;6.82;100.00
50790;BME280;37287;47.554;7.844;2023-11-21T07:49:33;97497.16;;;6.84;100.00
50790;BME280;37287;47.554;7.844;2023-11-21T07:52:01;97503.34;;;6.84;100.00
50790;BME280;37287;47.554;7.844;2023-11-21T07:54:28;97505.66;;;6.86;100.00
50790;BME280;37287;47.554;7.844;2023-11-21T07:56:54;97502.97;;;6.86;100.00
50790;BME280;37287;47.554;7.844;2023-11-21T07:59:21;97501.41;;;6.85;100.00
50790;BME280;37287;47.554;7.844;2023-11-21T08:01:48;97504.88;;;6.85;100.00
50790;BME280;37287;47.554;7.844;2023-11-21T08:04:16;97499.13;;;6.87;100.00
50790;BME280;37287;47.554;7.844;2023-11-21T08:06:45;97490.34;;;6.90;100.00
50790;BME280;37287;47.554;7.844;2023-11-21T08:09:12;97495.75;;;6.90;100.00
50790;BME280;37287;47.554;7.844;2023-11-21T08:11:40;97488.78;;;6.89;100.00
50790;BME280;37287;47.554;7.844;2023-11-21T08:14:07;97486.47;;;6.87;100.00
50790;BME280;37287;47.554;7.844;2023-11-21T08:16:35;97491.88;;;6.91;100.00
50790;BME280;37287;47.554;7.844;2023-11-21T08:19:06;97487.69;;;6.94;100.00
50790;BME280;37287;47.554;7.844;2023-11-21T08:21:35;97503.56;;;6.99;100.00
50790;BME280;37287;47.554;7.844;2023-11-21T08:24:04;97511.28;;;7.00;100.00
50790;BME280;37287;47.554;7.844;2023-11-21T08:26:31;97518.63;;;7.03;100.00
50790;BME280;37287;47.554;7.844;2023-11-21T08:28:58;97517.50;;;7.04;100.00
50790;BME280;37287;47.554;7.844;2023-11-21T08:31:25;97513.66;;;7.05;100.00
50790;BME280;37287;47.554;7.844;2023-11-21T08:33:56;97519.81;;;7.06;100.00
50790;BME280;37287;47.554;7.844;2023-11-21T08:36:23;97516.00;;;7.07;100.00
50790;BME280;37287;47.554;7.844;2023-11-21T08:38:51;97526.03;;;7.10;100.00
50790;BME280;37287;47.554;7.844;2023-11-21T08:41:22;97522.22;;;7.11;100.00
50790;BME280;37287;47.554;7.844;2023-11-21T08:43:52;97526.50;;;7.16;100.00
50790;BME280;37287;47.554;7.844;2023-11-21T08:46:20;97529.25;;;7.19;100.00
50790;BME280;37287;47.554;7.844;2023-11-21T08:48:48;97532.41;;;7.25;100.00
50790;BME280;37287;47.554;7.844;2023-11-21T08:51:16;97542.88;;;7.30;100.00
50790;BME280;37287;47.554;7.844;2023-11-21T08:53:42;97546.03;;;7.36;100.00
50790;BME280;37287;47.554;7.844;2023-11-21T08:56:14;97540.34;;;7.41;100.00
50790;BME280;37287;47.554;7.844;2023-11-21T08:58:43;97543.16;;;7.48;100.00
50790;BME280;37287;47.554;7.844;2023-11-21T09:01:09;97535.94;;;7.56;100.00
50790;BME280;37287;47.554;7.844;2023-11-21T09:03:36;97536.50;;;7.69;100.00
50790;BME280;37287;47.554;7.844;2023-11-21T09:06:04;97535.06;;;7.75;100.00
50790;BME280;37287;47.554;7.844;2023-11-21T09:08:54;97541.28;;;7.79;100.00
50790;BME280;37287;47.554;7.844;2023-11-21T09:11:23;97535.53;;;7.84;100.00
50790;BME280;37287;47.554;7.844;2023-11-21T09:13:51;97537.16;;;7.89;100.00
50790;BME280;37287;47.554;7.844;2023-11-21T09:16:18;97541.03;;;7.91;100.00
50790;BME280;37287;47.554;7.844;2023-11-21T09:18:47;97544.91;;;7.94;100.00
50790;BME280;37287;47.554;7.844;2023-11-21T09:21:13;97542.66;;;8.00;100.00
50790;BME280;37287;47.554;7.844;2023-11-21T09:23:40;97555.75;;;7.98;100.00
50790;BME280;37287;47.554;7.844;2023-11-21T09:26:09;97552.69;;;7.99;100.00
50790;BME280;37287;47.554;7.844;2023-11-21T09:28:36;97555.75;;;7.98;100.00
50790;BME280;37287;47.554;7.844;2023-11-21T09:31:05;97555.69;;;7.94;100.00
50790;BME280;37287;47.554;7.844;2023-11-21T09:33:35;97561.06;;;7.90;100.00
50790;BME280;37287;47.554;7.844;2023-11-21T09:36:02;97565.25;;;7.88;100.00
50790;BME280;37287;47.554;7.844;2023-11-21T09:38:31;97566.00;;;7.85;100.00
50790;BME280;37287;47.554;7.844;2023-11-21T09:40:58;97561.72;;;7.84;100.00
50790;BME280;37287;47.554;7.844;2023-11-21T09:43:28;97558.28;;;7.83;100.00
50790;BME280;37287;47.554;7.844;2023-11-21T09:45:59;97560.16;;;7.83;100.00
50790;BME280;37287;47.554;7.844;2023-11-21T09:48:29;97564.81;;;7.86;100.00
50790;BME280;37287;47.554;7.844;2023-11-21T09:50:59;97560.63;;;7.88;100.00
50790;BME280;37287;47.554;7.844;2023-11-21T09:53:27;97557.56;;;7.90;100.00
50790;BME280;37287;47.554;7.844;2023-11-21T09:56:00;97562.22;;;7.93;100.00
50790;BME280;37287;47.554;7.844;2023-11-21T09:58:53;97561.91;;;7.98;100.00
50790;BME280;37287;47.554;7.844;2023-11-21T10:01:22;97561.97;;;8.02;100.00
50790;BME280;37287;47.554;7.844;2023-11-21T10:03:50;97557.75;;;8.04;100.00
50790;BME280;37287;47.554;7.844;2023-11-21T10:06:17;97567.47;;;8.13;100.00
50790;BME280;37287;47.554;7.844;2023-11-21T10:08:46;97559.06;;;8.18;100.00
50790;BME280;37287;47.554;7.844;2023-11-21T10:11:24;97567.16;;;8.18;100.00
50790;BME280;37287;47.554;7.844;2023-11-21T10:13:54;97568.34;;;8.20;100.00
50790;BME280;37287;47.554;7.844;2023-11-21T10:16:22;97567.63;;;8.23;100.00
50790;BME280;37287;47.554;7.844;2023-11-21T10:18:53;97563.72;;;8.21;100.00
50790;BME280;37287;47.554;7.844;2023-11-21T10:21:38;97563.72;;;8.21;100.00
50790;BME280;37287;47.554;7.844;2023-11-21T10:24:05;97561.47;;;8.23;100.00
50790;BME280;37287;47.554;7.844;2023-11-21T10:26:35;97562.25;;;8.27;100.00
50790;BME280;37287;47.554;7.844;2023-11-21T10:29:16;97562.34;;;8.34;100.00
50790;BME280;37287;47.554;7.844;2023-11-21T10:31:49;97563.50;;;8.33;100.00
50790;BME280;37287;47.554;7.844;2023-11-21T10:34:18;97558.50;;;8.35;100.00
50790;BME280;37287;47.554;7.844;2023-11-21T10:36:45;97561.63;;;8.37;100.00
50790;BME280;37287;47.554;7.844;2023-11-21T10:39:19;97560.06;;;8.36;100.00
50790;BME280;37287;47.554;7.844;2023-11-21T10:41:47;97560.06;;;8.36;100.00
50790;BME280;37287;47.554;7.844;2023-11-21T10:44:15;97560.44;;;8.35;100.00
50790;BME280;37287;47.554;7.844;2023-11-21T10:46:51;97564.63;;;8.32;100.00
50790;BME280;37287;47.554;7.844;2023-11-21T10:49:25;97559.66;;;8.34;100.00
50790;BME280;37287;47.554;7.844;2023-11-21T10:51:56;97561.25;;;8.39;100.00
50790;BME280;37287;47.554;7.844;2023-11-21T10:54:25;97562.00;;;8.39;100.00
50790;BME280;37287;47.554;7.844;2023-11-21T10:57:00;97567.03;;;8.41;100.00
50790;BME280;37287;47.554;7.844;2023-11-21T10:59:28;97563.88;;;8.35;100.00
50790;BME280;37287;47.554;7.844;2023-11-21T11:02:01;97570.09;;;8.36;100.00
50790;BME280;37287;47.554;7.844;2023-11-21T11:04:34;97563.88;;;8.35;100.00
50790;BME280;37287;47.554;7.844;2023-11-21T11:07:06;97565.09;;;8.38;100.00
50790;BME280;37287;47.554;7.844;2023-11-21T11:09:38;97567.41;;;8.39;100.00
50790;BME280;37287;47.554;7.844;2023-11-21T11:12:06;97565.88;;;8.38;100.00
50790;BME280;37287;47.554;7.844;2023-11-21T11:14:32;97573.19;;;8.38;100.00
50790;BME280;37287;47.554;7.844;2023-11-21T11:17:02;97577.00;;;8.37;100.00
50790;BME280;37287;47.554;7.844;2023-11-21T11:19:30;97571.97;;;8.35;100.00
50790;BME280;37287;47.554;7.844;2023-11-21T11:22:14;97570.84;;;8.36;100.00
50790;BME280;37287;47.554;7.844;2023-11-21T11:24:58;97568.91;;;8.37;100.00
50790;BME280;37287;47.554;7.844;2023-11-21T11:27:52;97566.97;;;8.34;100.00
50790;BME280;37287;47.554;7.844;2023-11-21T11:38:32;97571.59;;;8.33;100.00
50790;BME280;37287;47.554;7.844;2023-11-21T11:41:06;97575.41;;;8.29;100.00
50790;BME280;37287;47.554;7.844;2023-11-21T11:43:35;97573.47;;;8.29;100.00
50790;BME280;37287;47.554;7.844;2023-11-21T11:46:11;97568.81;;;8.26;100.00
50790;BME280;37287;47.554;7.844;2023-11-21T11:48:42;97568.38;;;8.24;100.00
50790;BME280;37287;47.554;7.844;2023-11-21T11:51:14;97573.38;;;8.22;100.00
50790;BME280;37287;47.554;7.844;2023-11-21T11:53:46;97569.13;;;8.21;100.00
50790;BME280;37287;47.554;7.844;2023-11-21T11:58:55;97580.66;;;8.18;100.00
50790;BME280;37287;47.554;7.844;2023-11-21T12:01:24;97578.25;;;8.13;100.00
50790;BME280;37287;47.554;7.844;2023-11-21T12:06:44;97583.47;;;7.98;100.00
50790;BME280;37287;47.554;7.844;2023-11-21T12:09:17;97575.69;;;7.93;100.00
50790;BME280;37287;47.554;7.844;2023-11-21T12:11:47;97581.06;;;7.89;100.00
50790;BME280;37287;47.554;7.844;2023-11-21T12:14:15;97577.16;;;7.87;100.00
50790;BME280;37287;47.554;7.844;2023-11-21T12:16:42;97585.63;;;7.85;100.00
50790;BME280;37287;47.554;7.844;2023-11-21T12:19:12;97587.13;;;7.83;100.00
50790;BME280;37287;47.554;7.844;2023-11-21T12:21:41;97584.41;;;7.83;100.00
50790;BME280;37287;47.554;7.844;2023-11-21T12:24:08;97595.94;;;7.80;100.00
50790;BME280;37287;47.554;7.844;2023-11-21T12:26:35;97591.69;;;7.79;100.00
50790;BME280;37287;47.554;7.844;2023-11-21T12:29:02;97599.75;;;7.79;100.00
50790;BME280;37287;47.554;7.844;2023-11-21T12:31:31;97593.97;;;7.77;100.00
50790;BME280;37287;47.554;7.844;2023-11-21T12:34:00;97591.66;;;7.75;100.00
50790;BME280;37287;47.554;7.844;2023-11-21T12:36:26;97593.16;;;7.72;100.00
50790;BME280;37287;47.554;7.844;2023-11-21T12:38:55;97600.78;;;7.70;100.00
50790;BME280;37287;47.554;7.844;2023-11-21T12:41:24;97601.53;;;7.67;100.00
50790;BME280;37287;47.554;7.844;2023-11-21T12:43:50;97600.00;;;7.66;100.00
50790;BME280;37287;47.554;7.844;2023-11-21T12:46:17;97603.81;;;7.65;100.00
50790;BME280;37287;47.554;7.844;2023-11-21T12:48:44;97601.13;;;7.65;100.00
50790;BME280;37287;47.554;7.844;2023-11-21T12:51:14;97595.38;;;7.67;100.00
50790;BME280;37287;47.554;7.844;2023-11-21T12:53:43;97594.63;;;7.70;100.00
50790;BME280;37287;47.554;7.844;2023-11-21T12:56:10;97591.94;;;7.70;100.00
50790;BME280;37287;47.554;7.844;2023-11-21T12:58:38;97593.53;;;7.74;100.00
50790;BME280;37287;47.554;7.844;2023-11-21T13:01:06;97596.66;;;7.77;100.00
50790;BME280;37287;47.554;7.844;2023-11-21T13:03:38;97600.19;;;7.81;100.00
50790;BME280;37287;47.554;7.844;2023-11-21T13:06:07;97594.44;;;7.82;100.00
50790;BME280;37287;47.554;7.844;2023-11-21T13:08:36;97590.63;;;7.83;100.00
50790;BME280;37287;47.554;7.844;2023-11-21T13:11:07;97595.19;;;7.83;100.00
50790;BME280;37287;47.554;7.844;2023-11-21T13:13:35;97585.63;;;7.85;100.00
50790;BME280;37287;47.554;7.844;2023-11-21T13:16:02;97590.66;;;7.87;100.00
50790;BME280;37287;47.554;7.844;2023-11-21T13:18:32;97593.34;;;7.87;100.00
50790;BME280;37287;47.554;7.844;2023-11-21T13:21:01;97594.47;;;7.86;100.00
50790;BME280;37287;47.554;7.844;2023-11-21T13:23:34;97597.16;;;7.86;100.00